sensor_id;sensor_type;location;lat;lon;timestamp;pressure;altitude;pressure_sealevel;temperature;humidity
17260;BME280;8746;49.230;9.220;2022-11-20T00:02:17;99560.00;;;1.86;100.00
17260;BME280;8746;49.230;9.220;2022-11-20T00:04:42;99553.19;;;1.75;100.00
17260;BME280;8746;49.230;9.220;2022-11-20T00:07:08;99557.56;;;1.72;100.00
17260;BME280;8746;49.230;9.220;2022-11-20T00:09:33;99562.78;;;1.70;100.00
17260;BME280;8746;49.230;9.220;2022-11-20T00:11:59;99560.19;;;1.70;100.00
17260;BME280;8746;49.230;9.220;2022-11-20T00:14:24;99550.69;;;1.65;100.00
17260;BME280;8746;49.230;9.220;2022-11-20T00:16:49;99551.81;;;1.42;100.00
17260;BME280;8746;49.230;9.220;2022-11-20T00:19:15;99556.03;;;1.52;100.00
17260;BME280;8746;49.230;9.220;2022-11-20T00:21:40;99559.50;;;1.50;100.00
17260;BME280;8746;49.230;9.220;2022-11-20T00:24:08;99563.91;;;1.44;100.00
17260;BME280;8746;49.230;9.220;2022-11-20T00:26:35;99556.81;;;1.59;100.00
17260;BME280;8746;49.230;9.220;2022-11-20T00:29:00;99549.09;;;1.54;100.00
17260;BME280;8746;49.230;9.220;2022-11-20T00:31:26;99547.44;;;1.42;100.00
17260;BME280;8746;49.230;9.220;2022-11-20T00:33:52;99545.72;;;1.44;100.00
17260;BME280;8746;49.230;9.220;2022-11-20T00:36:23;99547.53;;;1.33;100.00
17260;BME280;8746;49.230;9.220;2022-11-20T00:38:53;99544.84;;;1.42;100.00
17260;BME280;8746;49.230;9.220;2022-11-20T00:41:19;99548.31;;;1.41;100.00
17260;BME280;8746;49.230;9.220;2022-11-20T00:43:44;99552.63;;;1.47;100.00
17260;BME280;8746;49.230;9.220;2022-11-20T00:46:14;99551.66;;;1.53;100.00
17260;BME280;8746;49.230;9.220;2022-11-20T00:48:41;99553.28;;;1.68;100.00
17260;BME280;8746;49.230;9.220;2022-11-20T00:51:06;99557.41;;;1.86;100.00
17260;BME280;8746;49.230;9.220;2022-11-20T00:53:31;99551.38;;;1.82;100.00
17260;BME280;8746;49.230;9.220;2022-11-20T00:56:05;99561.81;;;1.81;100.00
17260;BME280;8746;49.230;9.220;2022-11-20T00:58:33;99545.53;;;1.63;100.00
17260;BME280;8746;49.230;9.220;2022-11-20T01:01:00;99551.44;;;1.76;100.00
17260;BME280;8746;49.230;9.220;2022-11-20T01:03:26;99552.38;;;1.70;100.00
17260;BME280;8746;49.230;9.220;2022-11-20T01:05:51;99548.88;;;1.74;100.00
17260;BME280;8746;49.230;9.220;2022-11-20T01:08:17;99556.59;;;1.81;100.00
17260;BME280;8746;49.230;9.220;2022-11-20T01:10:42;99549.75;;;1.72;100.00
17260;BME280;8746;49.230;9.220;2022-11-20T01:13:07;99551.41;;;1.81;100.00
17260;BME280;8746;49.230;9.220;2022-11-20T01:15:51;99553.06;;;1.88;100.00
17260;BME280;8746;49.230;9.220;2022-11-20T01:18:16;99548.69;;;1.88;100.00
17260;BME280;8746;49.230;9.220;2022-11-20T01:20:42;99550.47;;;1.86;100.00
17260;BME280;8746;49.230;9.220;2022-11-20T01:23:07;99547.91;;;1.85;100.00
17260;BME280;8746;49.230;9.220;2022-11-20T01:25:34;99558.31;;;1.82;100.00
17260;BME280;8746;49.230;9.220;2022-11-20T01:27:59;99551.34;;;1.85;100.00
17260;BME280;8746;49.230;9.220;2022-11-20T01:30:25;99550.53;;;1.79;100.00
17260;BME280;8746;49.230;9.220;2022-11-20T01:32:50;99549.72;;;1.76;100.00
17260;BME280;8746;49.230;9.220;2022-11-20T01:35:16;99547.03;;;1.84;100.00
17260;BME280;8746;49.230;9.220;2022-11-20T01:37:41;99547.91;;;1.85;100.00
17260;BME280;8746;49.230;9.220;2022-11-20T01:40:07;99547.84;;;1.88;100.00
17260;BME280;8746;49.230;9.220;2022-11-20T01:42:32;99541.81;;;1.87;100.00
17260;BME280;8746;49.230;9.220;2022-11-20T01:45:46;99538.25;;;1.95;100.00
17260;BME280;8746;49.230;9.220;2022-11-20T01:48:18;99537.28;;;2.03;100.00
17260;BME280;8746;49.230;9.220;2022-11-20T01:50:44;99540.69;;;2.05;100.00
17260;BME280;8746;49.230;9.220;2022-11-20T01:53:13;99544.22;;;2.03;100.00
17260;BME280;8746;49.230;9.220;2022-11-20T01:55:50;99540.75;;;2.02;100.00
17260;BME280;8746;49.230;9.220;2022-11-20T01:58:20;99538.09;;;2.05;100.00
17260;BME280;8746;49.230;9.220;2022-11-20T02:00:48;99543.22;;;2.12;100.00
17260;BME280;8746;49.230;9.220;2022-11-20T02:03:16;99535.50;;;2.07;100.00
17260;BME280;8746;49.230;9.220;2022-11-20T02:05:55;99533.66;;;2.17;100.00
17260;BME280;8746;49.230;9.220;2022-11-20T02:08:23;99535.41;;;2.15;100.00
17260;BME280;8746;49.230;9.220;2022-11-20T02:10:48;99536.16;;;2.24;100.00
17260;BME280;8746;49.230;9.220;2022-11-20T02:13:14;99530.97;;;2.21;100.00
17260;BME280;8746;49.230;9.220;2022-11-20T02:15:58;99528.44;;;2.17;100.00
17260;BME280;8746;49.230;9.220;2022-11-20T02:18:24;99524.25;;;2.05;100.00
17260;BME280;8746;49.230;9.220;2022-11-20T02:21:02;99532.00;;;2.10;100.00
17260;BME280;8746;49.230;9.220;2022-11-20T02:23:36;99520.56;;;2.23;100.00
17260;BME280;8746;49.230;9.220;2022-11-20T02:26:05;99518.28;;;1.95;100.00
17260;BME280;8746;49.230;9.220;2022-11-20T02:28:32;99526.91;;;2.00;100.00
17260;BME280;8746;49.230;9.220;2022-11-20T02:30:57;99521.56;;;2.11;100.00
17260;BME280;8746;49.230;9.220;2022-11-20T02:33:22;99525.00;;;2.15;100.00
17260;BME280;8746;49.230;9.220;2022-11-20T02:35:48;99520.53;;;2.24;100.00
17260;BME280;8746;49.230;9.220;2022-11-20T02:38:14;99520.47;;;2.29;100.00
17260;BME280;8746;49.230;9.220;2022-11-20T02:40:40;99527.28;;;2.38;100.00
17260;BME280;8746;49.230;9.220;2022-11-20T02:43:06;99518.44;;;2.51;100.00
17260;BME280;8746;49.230;9.220;2022-11-20T02:45:31;99513.25;;;2.50;100.00
17260;BME280;8746;49.230;9.220;2022-11-20T02:47:56;99512.19;;;2.63;100.00
17260;BME280;8746;49.230;9.220;2022-11-20T02:50:22;99511.56;;;2.46;100.00
17260;BME280;8746;49.230;9.220;2022-11-20T02:52:47;99504.63;;;2.46;100.00
17260;BME280;8746;49.230;9.220;2022-11-20T02:55:13;99500.22;;;2.48;100.00
17260;BME280;8746;49.230;9.220;2022-11-20T02:57:38;99504.72;;;2.40;100.00
17260;BME280;8746;49.230;9.220;2022-11-20T03:00:04;99496.88;;;2.42;100.00
17260;BME280;8746;49.230;9.220;2022-11-20T03:02:31;99495.94;;;2.46;100.00
17260;BME280;8746;49.230;9.220;2022-11-20T03:04:57;99496.00;;;2.43;100.00
17260;BME280;8746;49.230;9.220;2022-11-20T03:07:22;99493.47;;;2.35;100.00
17260;BME280;8746;49.230;9.220;2022-11-20T03:09:48;99495.13;;;2.44;100.00
17260;BME280;8746;49.230;9.220;2022-11-20T03:12:13;99496.75;;;2.49;100.00
17260;BME280;8746;49.230;9.220;2022-11-20T03:14:39;99495.03;;;2.50;100.00
17260;BME280;8746;49.230;9.220;2022-11-20T03:17:04;99490.53;;;2.60;100.00
17260;BME280;8746;49.230;9.220;2022-11-20T03:19:30;99489.66;;;2.61;100.00
17260;BME280;8746;49.230;9.220;2022-11-20T03:21:55;99488.78;;;2.60;100.00
17260;BME280;8746;49.230;9.220;2022-11-20T03:24:20;99483.72;;;2.52;100.00
17260;BME280;8746;49.230;9.220;2022-11-20T03:26:46;99477.66;;;2.50;100.00
17260;BME280;8746;49.230;9.220;2022-11-20T03:29:11;99473.25;;;2.54;100.00
17260;BME280;8746;49.230;9.220;2022-11-20T03:31:39;99475.94;;;2.51;100.00
17260;BME280;8746;49.230;9.220;2022-11-20T03:34:09;99470.72;;;2.51;100.00
17260;BME280;8746;49.230;9.220;2022-11-20T03:36:38;99474.16;;;2.51;100.00
17260;BME280;8746;49.230;9.220;2022-11-20T03:39:04;99468.09;;;2.52;100.00
17260;BME280;8746;49.230;9.220;2022-11-20T03:41:30;99463.66;;;2.58;100.00
17260;BME280;8746;49.230;9.220;2022-11-20T03:44:01;99469.75;;;2.56;100.00
17260;BME280;8746;49.230;9.220;2022-11-20T03:46:27;99475.75;;;2.63;100.00
17260;BME280;8746;49.230;9.220;2022-11-20T03:48:53;99478.38;;;2.60;100.00
17260;BME280;8746;49.230;9.220;2022-11-20T03:51:23;99476.66;;;2.59;100.00
17260;BME280;8746;49.230;9.220;2022-11-20T03:53:50;99472.28;;;2.61;100.00
17260;BME280;8746;49.230;9.220;2022-11-20T03:56:18;99473.13;;;2.62;100.00
17260;BME280;8746;49.230;9.220;2022-11-20T03:58:44;99468.81;;;2.62;100.00
17260;BME280;8746;49.230;9.220;2022-11-20T04:01:21;99465.31;;;2.63;100.00
17260;BME280;8746;49.230;9.220;2022-11-20T04:03:47;99474.75;;;2.70;100.00
17260;BME280;8746;49.230;9.220;2022-11-20T04:06:15;99469.44;;;2.77;100.00
17260;BME280;8746;49.230;9.220;2022-11-20T04:08:41;99474.00;;;2.62;100.00
17260;BME280;8746;49.230;9.220;2022-11-20T04:11:15;99472.28;;;2.61;100.00
17260;BME280;8746;49.230;9.220;2022-11-20T04:13:41;99466.09;;;2.68;100.00
17260;BME280;8746;49.230;9.220;2022-11-20T04:16:09;99466.03;;;2.71;100.00
17260;BME280;8746;49.230;9.220;2022-11-20T04:18:35;99467.91;;;2.65;100.00
17260;BME280;8746;49.230;9.220;2022-11-20T04:21:01;99466.97;;;2.67;100.00
17260;BME280;8746;49.230;9.220;2022-11-20T04:23:27;99465.88;;;2.82;100.00
17260;BME280;8746;49.230;9.220;2022-11-20T04:25:53;99467.53;;;2.88;100.00
17260;BME280;8746;49.230;9.220;2022-11-20T04:28:18;99453.94;;;2.69;100.00
17260;BME280;8746;49.230;9.220;2022-11-20T04:30:44;99460.91;;;2.67;100.00
17260;BME280;8746;49.230;9.220;2022-11-20T04:33:09;99453.28;;;2.56;100.00
17260;BME280;8746;49.230;9.220;2022-11-20T04:35:36;99454.91;;;2.63;100.00
17260;BME280;8746;49.230;9.220;2022-11-20T04:38:01;99453.34;;;2.51;100.00
17260;BME280;8746;49.230;9.220;2022-11-20T04:40:27;99466.31;;;2.53;100.00
17260;BME280;8746;49.230;9.220;2022-11-20T04:42:53;99458.50;;;2.53;100.00
17260;BME280;8746;49.230;9.220;2022-11-20T04:45:19;99466.19;;;2.62;100.00
17260;BME280;8746;49.230;9.220;2022-11-20T04:47:44;99458.44;;;2.58;100.00
17260;BME280;8746;49.230;9.220;2022-11-20T04:50:09;99471.16;;;2.78;100.00
17260;BME280;8746;49.230;9.220;2022-11-20T04:52:35;99475.50;;;2.77;100.00
17260;BME280;8746;49.230;9.220;2022-11-20T04:55:00;99459.91;;;2.76;100.00
17260;BME280;8746;49.230;9.220;2022-11-20T04:57:25;99461.56;;;2.80;100.00
17260;BME280;8746;49.230;9.220;2022-11-20T04:59:51;99466.63;;;2.91;100.00
17260;BME280;8746;49.230;9.220;2022-11-20T05:02:16;99466.75;;;2.81;100.00
17260;BME280;8746;49.230;9.220;2022-11-20T05:04:41;99460.69;;;2.81;100.00
17260;BME280;8746;49.230;9.220;2022-11-20T05:07:07;99459.00;;;2.78;100.00
17260;BME280;8746;49.230;9.220;2022-11-20T05:09:32;99465.84;;;2.85;100.00
17260;BME280;8746;49.230;9.220;2022-11-20T05:11:57;99462.34;;;2.86;100.00
17260;BME280;8746;49.230;9.220;2022-11-20T05:14:23;99464.91;;;2.88;100.00
17260;BME280;8746;49.230;9.220;2022-11-20T05:16:48;99456.16;;;2.92;100.00
17260;BME280;8746;49.230;9.220;2022-11-20T05:19:13;99452.00;;;2.82;100.00
17260;BME280;8746;49.230;9.220;2022-11-20T05:21:39;99452.00;;;2.82;100.00
17260;BME280;8746;49.230;9.220;2022-11-20T05:24:04;99446.88;;;2.76;100.00
17260;BME280;8746;49.230;9.220;2022-11-20T05:26:31;99452.75;;;2.88;100.00
17260;BME280;8746;49.230;9.220;2022-11-20T05:28:56;99442.09;;;3.01;100.00
17260;BME280;8746;49.230;9.220;2022-11-20T05:31:23;99451.75;;;2.97;100.00
17260;BME280;8746;49.230;9.220;2022-11-20T05:33:49;99457.72;;;3.02;100.00
17260;BME280;8746;49.230;9.220;2022-11-20T05:36:15;99457.72;;;3.02;100.00
17260;BME280;8746;49.230;9.220;2022-11-20T05:38:41;99454.97;;;3.10;100.00
17260;BME280;8746;49.230;9.220;2022-11-20T05:41:08;99451.72;;;2.99;100.00
17260;BME280;8746;49.230;9.220;2022-11-20T05:43:35;99454.13;;;3.10;100.00
17260;BME280;8746;49.230;9.220;2022-11-20T05:46:02;99453.16;;;3.17;100.00
17260;BME280;8746;49.230;9.220;2022-11-20T05:48:27;99444.44;;;3.16;100.00
17260;BME280;8746;49.230;9.220;2022-11-20T05:50:53;99456.72;;;3.11;100.00
17260;BME280;8746;49.230;9.220;2022-11-20T05:53:18;99450.53;;;3.17;100.00
17260;BME280;8746;49.230;9.220;2022-11-20T05:55:44;99456.56;;;3.19;100.00
17260;BME280;8746;49.230;9.220;2022-11-20T05:58:09;99463.56;;;3.15;100.00
17260;BME280;8746;49.230;9.220;2022-11-20T06:00:35;99460.75;;;3.29;100.00
17260;BME280;8746;49.230;9.220;2022-11-20T06:03:00;99464.22;;;3.28;100.00
17260;BME280;8746;49.230;9.220;2022-11-20T06:05:26;99460.84;;;3.23;100.00
17260;BME280;8746;49.230;9.220;2022-11-20T06:07:51;99463.53;;;3.18;100.00
17260;BME280;8746;49.230;9.220;2022-11-20T06:10:16;99453.03;;;3.23;100.00
17260;BME280;8746;49.230;9.220;2022-11-20T06:12:42;99449.09;;;3.47;100.00
17260;BME280;8746;49.230;9.220;2022-11-20T06:15:08;99457.34;;;3.24;100.00
17260;BME280;8746;49.230;9.220;2022-11-20T06:17:33;99457.28;;;3.27;100.00
17260;BME280;8746;49.230;9.220;2022-11-20T06:19:59;99456.38;;;3.30;100.00
17260;BME280;8746;49.230;9.220;2022-11-20T06:22:24;99455.53;;;3.29;100.00
17260;BME280;8746;49.230;9.220;2022-11-20T06:24:49;99457.19;;;3.33;100.00
17260;BME280;8746;49.230;9.220;2022-11-20T06:27:15;99452.72;;;3.40;100.00
17260;BME280;8746;49.230;9.220;2022-11-20T06:29:41;99451.00;;;3.37;100.00
17260;BME280;8746;49.230;9.220;2022-11-20T06:32:06;99446.63;;;3.40;100.00
17260;BME280;8746;49.230;9.220;2022-11-20T06:34:31;99450.00;;;3.46;100.00
17260;BME280;8746;49.230;9.220;2022-11-20T06:36:57;99448.97;;;3.53;100.00
17260;BME280;8746;49.230;9.220;2022-11-20T06:39:22;99458.38;;;3.62;100.00
17260;BME280;8746;49.230;9.220;2022-11-20T06:41:47;99452.38;;;3.59;100.00
17260;BME280;8746;49.230;9.220;2022-11-20T06:44:13;99462.88;;;3.54;100.00
17260;BME280;8746;49.230;9.220;2022-11-20T06:46:38;99460.31;;;3.51;100.00
17260;BME280;8746;49.230;9.220;2022-11-20T06:49:03;99454.88;;;3.63;100.00
17260;BME280;8746;49.230;9.220;2022-11-20T06:51:29;99451.50;;;3.58;100.00
17260;BME280;8746;49.230;9.220;2022-11-20T06:53:54;99461.13;;;3.56;100.00
17260;BME280;8746;49.230;9.220;2022-11-20T06:56:20;99459.34;;;3.57;100.00
17260;BME280;8746;49.230;9.220;2022-11-20T06:58:45;99450.22;;;3.79;100.00
17260;BME280;8746;49.230;9.220;2022-11-20T07:01:12;99452.97;;;3.72;100.00
17260;BME280;8746;49.230;9.220;2022-11-20T07:03:39;99450.44;;;3.67;100.00
17260;BME280;8746;49.230;9.220;2022-11-20T07:06:05;99457.22;;;3.77;100.00
17260;BME280;8746;49.230;9.220;2022-11-20T07:08:31;99459.88;;;3.74;100.00
17260;BME280;8746;49.230;9.220;2022-11-20T07:10:58;99463.94;;;3.88;100.00
17260;BME280;8746;49.230;9.220;2022-11-20T07:13:24;99462.34;;;3.82;100.00
17260;BME280;8746;49.230;9.220;2022-11-20T07:15:49;99469.78;;;4.00;100.00
17260;BME280;8746;49.230;9.220;2022-11-20T07:18:15;99467.22;;;3.97;100.00
17260;BME280;8746;49.230;9.220;2022-11-20T07:20:40;99466.56;;;3.89;100.00
17260;BME280;8746;49.230;9.220;2022-11-20T07:23:05;99471.84;;;3.84;100.00
17260;BME280;8746;49.230;9.220;2022-11-20T07:25:31;99472.53;;;3.94;100.00
17260;BME280;8746;49.230;9.220;2022-11-20T07:27:57;99471.78;;;3.89;100.00
17260;BME280;8746;49.230;9.220;2022-11-20T07:30:23;99470.84;;;3.92;100.00
17260;BME280;8746;49.230;9.220;2022-11-20T07:32:53;99464.69;;;3.94;100.00
17260;BME280;8746;49.230;9.220;2022-11-20T07:35:19;99464.31;;;4.13;100.00
17260;BME280;8746;49.230;9.220;2022-11-20T07:37:44;99459.75;;;4.23;100.00
17260;BME280;8746;49.230;9.220;2022-11-20T07:40:15;99459.28;;;4.43;100.00
17260;BME280;8746;49.230;9.220;2022-11-20T07:45:15;99450.09;;;4.64;100.00
17260;BME280;8746;49.230;9.220;2022-11-20T07:47:40;99451.88;;;4.62;100.00
17260;BME280;8746;49.230;9.220;2022-11-20T07:50:06;99460.22;;;4.78;100.00
17260;BME280;8746;49.230;9.220;2022-11-20T07:52:32;99450.34;;;4.89;100.00
17260;BME280;8746;49.230;9.220;2022-11-20T07:54:57;99458.94;;;4.94;100.00
17260;BME280;8746;49.230;9.220;2022-11-20T07:57:23;99456.19;;;5.01;100.00
17260;BME280;8746;49.230;9.220;2022-11-20T07:59:48;99453.63;;;4.97;100.00
17260;BME280;8746;49.230;9.220;2022-11-20T08:02:13;99456.09;;;5.04;100.00
17260;BME280;8746;49.230;9.220;2022-11-20T08:04:39;99460.03;;;5.20;100.00
17260;BME280;8746;49.230;9.220;2022-11-20T08:07:04;99459.22;;;5.18;100.00
17260;BME280;8746;49.230;9.220;2022-11-20T08:09:29;99454.81;;;5.20;100.00
17260;BME280;8746;49.230;9.220;2022-11-20T08:11:55;99459.06;;;5.24;100.00
17260;BME280;8746;49.230;9.220;2022-11-20T08:14:39;99459.94;;;5.25;100.00
17260;BME280;8746;49.230;9.220;2022-11-20T08:17:04;99473.22;;;5.16;100.00
17260;BME280;8746;49.230;9.220;2022-11-20T08:19:29;99469.63;;;5.20;100.00
17260;BME280;8746;49.230;9.220;2022-11-20T08:21:55;99466.06;;;5.24;100.00
17260;BME280;8746;49.230;9.220;2022-11-20T08:24:20;99458.88;;;5.30;100.00
17260;BME280;8746;49.230;9.220;2022-11-20T08:26:46;99452.84;;;5.28;100.00
17260;BME280;8746;49.230;9.220;2022-11-20T08:29:11;99473.69;;;5.32;100.00
17260;BME280;8746;49.230;9.220;2022-11-20T08:31:36;99472.84;;;5.31;100.00
17260;BME280;8746;49.230;9.220;2022-11-20T08:34:02;99470.25;;;5.29;100.00
17260;BME280;8746;49.230;9.220;2022-11-20T08:36:27;99471.97;;;5.30;100.00
17260;BME280;8746;49.230;9.220;2022-11-20T08:38:54;99474.53;;;5.32;100.00
17260;BME280;8746;49.230;9.220;2022-11-20T08:41:20;99470.91;;;5.38;100.00
17260;BME280;8746;49.230;9.220;2022-11-20T08:43:59;99475.25;;;5.39;100.00
17260;BME280;8746;49.230;9.220;2022-11-20T08:46:33;99480.38;;;5.42;100.00
17260;BME280;8746;49.230;9.220;2022-11-20T08:49:00;99475.84;;;5.49;100.00
17260;BME280;8746;49.230;9.220;2022-11-20T08:51:25;99471.47;;;5.49;100.00
17260;BME280;8746;49.230;9.220;2022-11-20T08:53:51;99477.47;;;5.54;100.00
17260;BME280;8746;49.230;9.220;2022-11-20T08:56:16;99476.41;;;5.61;100.00
17260;BME280;8746;49.230;9.220;2022-11-20T08:58:42;99479.63;;;5.70;100.00
17260;BME280;8746;49.230;9.220;2022-11-20T09:01:08;99481.53;;;5.65;100.00
17260;BME280;8746;49.230;9.220;2022-11-20T09:03:33;99483.09;;;5.72;100.00
17260;BME280;8746;49.230;9.220;2022-11-20T09:06:00;99480.41;;;5.73;100.00
17260;BME280;8746;49.230;9.220;2022-11-20T09:08:26;99480.94;;;5.86;100.00
17260;BME280;8746;49.230;9.220;2022-11-20T09:10:53;99473.63;;;5.98;100.00
17260;BME280;8746;49.230;9.220;2022-11-20T09:13:20;99476.94;;;6.06;100.00
17260;BME280;8746;49.230;9.220;2022-11-20T09:15:46;99485.50;;;6.11;100.00
17260;BME280;8746;49.230;9.220;2022-11-20T09:18:12;99472.31;;;6.14;100.00
17260;BME280;8746;49.230;9.220;2022-11-20T09:20:38;99490.81;;;6.08;100.00
17260;BME280;8746;49.230;9.220;2022-11-20T09:23:03;99488.25;;;6.06;100.00
17260;BME280;8746;49.230;9.220;2022-11-20T09:25:28;99486.53;;;6.05;100.00
17260;BME280;8746;49.230;9.220;2022-11-20T09:27:57;99492.53;;;6.09;100.00
17260;BME280;8746;49.230;9.220;2022-11-20T09:30:23;99491.75;;;6.07;100.00
17260;BME280;8746;49.230;9.220;2022-11-20T09:32:49;99490.06;;;6.04;100.00
17260;BME280;8746;49.230;9.220;2022-11-20T09:35:14;99494.13;;;6.15;100.00
17260;BME280;8746;49.230;9.220;2022-11-20T09:37:40;99499.34;;;6.15;100.00
17260;BME280;8746;49.230;9.220;2022-11-20T09:40:06;99497.56;;;6.17;100.00
17260;BME280;8746;49.230;9.220;2022-11-20T09:42:43;99504.53;;;6.16;100.00
17260;BME280;8746;49.230;9.220;2022-11-20T09:47:58;99502.13;;;6.40;100.00
17260;BME280;8746;49.230;9.220;2022-11-20T09:50:36;99499.88;;;6.28;100.00
17260;BME280;8746;49.230;9.220;2022-11-20T09:55:38;99512.91;;;6.29;100.00
17260;BME280;8746;49.230;9.220;2022-11-20T09:58:15;99509.53;;;6.25;100.00
17260;BME280;8746;49.230;9.220;2022-11-20T10:00:41;99511.31;;;6.23;100.00
17260;BME280;8746;49.230;9.220;2022-11-20T10:03:16;99507.75;;;6.26;100.00
17260;BME280;8746;49.230;9.220;2022-11-20T10:05:45;99498.88;;;6.32;100.00
17260;BME280;8746;49.230;9.220;2022-11-20T10:08:22;99503.91;;;6.38;100.00
17260;BME280;8746;49.230;9.220;2022-11-20T10:29:19;99478.03;;;6.57;100.00
17260;BME280;8746;49.230;9.220;2022-11-20T10:31:56;99489.97;;;6.66;100.00
17260;BME280;8746;49.230;9.220;2022-11-20T10:34:52;99492.03;;;6.56;100.00
17260;BME280;8746;49.230;9.220;2022-11-20T10:37:23;99491.88;;;6.61;100.00
17260;BME280;8746;49.230;9.220;2022-11-20T10:42:44;99492.78;;;6.60;100.00
17260;BME280;8746;49.230;9.220;2022-11-20T10:45:19;99483.22;;;6.58;100.00
17260;BME280;8746;49.230;9.220;2022-11-20T10:47:47;99484.81;;;6.63;100.00
17260;BME280;8746;49.230;9.220;2022-11-20T10:50:16;99487.53;;;6.60;100.00
17260;BME280;8746;49.230;9.220;2022-11-20T10:53:07;99485.06;;;6.55;100.00
17260;BME280;8746;49.230;9.220;2022-11-20T10:58:45;99483.97;;;6.62;100.00
17260;BME280;8746;49.230;9.220;2022-11-20T11:01:17;99476.06;;;6.64;100.00
17260;BME280;8746;49.230;9.220;2022-11-20T11:03:43;99474.44;;;6.60;100.00
17260;BME280;8746;49.230;9.220;2022-11-20T11:06:12;99479.56;;;6.63;100.00
17260;BME280;8746;49.230;9.220;2022-11-20T11:08:40;99476.88;;;6.66;100.00
17260;BME280;8746;49.230;9.220;2022-11-20T11:11:23;99473.16;;;6.73;100.00
17260;BME280;8746;49.230;9.220;2022-11-20T11:13:49;99467.78;;;6.76;100.00
17260;BME280;8746;49.230;9.220;2022-11-20T11:16:26;99468.56;;;6.80;100.00
17260;BME280;8746;49.230;9.220;2022-11-20T11:19:06;99455.84;;;6.94;100.00
17260;BME280;8746;49.230;9.220;2022-11-20T11:21:32;99456.81;;;6.92;100.00
17260;BME280;8746;49.230;9.220;2022-11-20T11:24:04;99456.69;;;6.95;100.00
17260;BME280;8746;49.230;9.220;2022-11-20T11:26:30;99448.13;;;6.89;100.00
17260;BME280;8746;49.230;9.220;2022-11-20T11:29:03;99443.63;;;6.93;100.00
17260;BME280;8746;49.230;9.220;2022-11-20T11:31:35;99446.31;;;6.92;100.00
17260;BME280;8746;49.230;9.220;2022-11-20T11:34:12;99438.34;;;6.68;100.00
17260;BME280;8746;49.230;9.220;2022-11-20T11:36:38;99441.50;;;6.79;100.00
17260;BME280;8746;49.230;9.220;2022-11-20T11:39:06;99445.00;;;6.78;100.00
17260;BME280;8746;49.230;9.220;2022-11-20T11:41:34;99434.59;;;6.75;100.00
17260;BME280;8746;49.230;9.220;2022-11-20T11:44:16;99437.28;;;6.73;100.00
17260;BME280;8746;49.230;9.220;2022-11-20T11:47:02;99429.69;;;6.93;100.00
17260;BME280;8746;49.230;9.220;2022-11-20T11:49:28;99421.06;;;7.14;100.00
17260;BME280;8746;49.230;9.220;2022-11-20T11:51:58;99411.22;;;7.46;100.00
17260;BME280;8746;49.230;9.220;2022-11-20T12:00:14;99399.47;;;7.80;100.00
17260;BME280;8746;49.230;9.220;2022-11-20T12:05:30;99414.09;;;8.10;98.29
17260;BME280;8746;49.230;9.220;2022-11-20T12:10:41;99407.13;;;7.63;96.62
17260;BME280;8746;49.230;9.220;2022-11-20T12:16:13;99416.03;;;7.59;97.30
17260;BME280;8746;49.230;9.220;2022-11-20T12:18:40;99405.41;;;7.62;98.46
17260;BME280;8746;49.230;9.220;2022-11-20T12:21:17;99404.63;;;7.60;96.47
17260;BME280;8746;49.230;9.220;2022-11-20T12:26:54;99407.81;;;7.92;95.77
17260;BME280;8746;49.230;9.220;2022-11-20T12:29:32;99399.06;;;7.91;95.13
17260;BME280;8746;49.230;9.220;2022-11-20T12:35:04;99399.09;;;8.13;93.93
17260;BME280;8746;49.230;9.220;2022-11-20T12:37:45;99392.16;;;8.34;90.50
17260;BME280;8746;49.230;9.220;2022-11-20T12:40:27;99391.28;;;8.78;89.37
17260;BME280;8746;49.230;9.220;2022-11-20T12:43:01;99389.25;;;8.85;88.28
17260;BME280;8746;49.230;9.220;2022-11-20T12:45:56;99391.09;;;8.61;87.86
17260;BME280;8746;49.230;9.220;2022-11-20T12:49:10;99389.94;;;8.46;87.33
17260;BME280;8746;49.230;9.220;2022-11-20T12:51:52;99397.53;;;8.54;88.66
17260;BME280;8746;49.230;9.220;2022-11-20T12:54:33;99401.66;;;8.81;89.44
17260;BME280;8746;49.230;9.220;2022-11-20T12:57:14;99400.84;;;8.59;87.48
17260;BME280;8746;49.230;9.220;2022-11-20T13:05:54;99393.66;;;8.40;87.38
17260;BME280;8746;49.230;9.220;2022-11-20T13:08:27;99406.63;;;8.23;87.83
17260;BME280;8746;49.230;9.220;2022-11-20T13:11:18;99400.28;;;8.28;89.78
17260;BME280;8746;49.230;9.220;2022-11-20T13:13:59;99395.38;;;8.41;89.20
17260;BME280;8746;49.230;9.220;2022-11-20T13:19:10;99392.41;;;8.50;87.94
17260;BME280;8746;49.230;9.220;2022-11-20T13:21:39;99380.72;;;8.36;88.73
17260;BME280;8746;49.230;9.220;2022-11-20T13:26:45;99380.81;;;8.10;89.45
17260;BME280;8746;49.230;9.220;2022-11-20T13:29:16;99363.66;;;8.24;88.28
17260;BME280;8746;49.230;9.220;2022-11-20T13:31:47;99370.25;;;8.34;87.31
17260;BME280;8746;49.230;9.220;2022-11-20T13:34:26;99376.75;;;8.47;87.32
17260;BME280;8746;49.230;9.220;2022-11-20T13:36:54;99364.97;;;8.58;85.34
17260;BME280;8746;49.230;9.220;2022-11-20T13:39:33;99360.22;;;8.44;85.90
17260;BME280;8746;49.230;9.220;2022-11-20T13:42:22;99361.41;;;8.59;85.58
17260;BME280;8746;49.230;9.220;2022-11-20T13:44:54;99362.91;;;8.64;85.64
17260;BME280;8746;49.230;9.220;2022-11-20T13:47:25;99370.34;;;8.75;84.37
17260;BME280;8746;49.230;9.220;2022-11-20T13:49:52;99361.28;;;8.62;83.65
17260;BME280;8746;49.230;9.220;2022-11-20T13:54:58;99359.31;;;8.45;84.67
17260;BME280;8746;49.230;9.220;2022-11-20T14:00:18;99361.13;;;8.21;85.69
17260;BME280;8746;49.230;9.220;2022-11-20T14:05:23;99366.28;;;8.24;86.16
17260;BME280;8746;49.230;9.220;2022-11-20T14:07:50;99352.72;;;8.12;85.61
17260;BME280;8746;49.230;9.220;2022-11-20T14:10:23;99355.56;;;8.06;84.00
17260;BME280;8746;49.230;9.220;2022-11-20T14:12:49;99359.19;;;8.03;83.63
17260;BME280;8746;49.230;9.220;2022-11-20T14:15:33;99353.31;;;7.97;81.99
17260;BME280;8746;49.230;9.220;2022-11-20T14:17:59;99360.50;;;7.69;81.39
17260;BME280;8746;49.230;9.220;2022-11-20T14:20:37;99368.13;;;7.52;83.79
17260;BME280;8746;49.230;9.220;2022-11-20T14:23:03;99362.59;;;7.36;83.20
17260;BME280;8746;49.230;9.220;2022-11-20T14:25:30;99365.50;;;7.28;84.77
17260;BME280;8746;49.230;9.220;2022-11-20T14:27:58;99370.75;;;7.28;86.11
17260;BME280;8746;49.230;9.220;2022-11-20T14:30:29;99349.47;;;7.12;85.93
17260;BME280;8746;49.230;9.220;2022-11-20T14:33:02;99357.09;;;7.18;87.34